logo
Search for airport 
image banner adimage banner adimage banner ad
image banner ad

CYRQ - Trois-Rivieres

Located in Trois-Rivieres, Canada

ICAO - CYRQ, IATA - YRQ

Data provided by Airmate  

General information

Coordinates: N46°21'6" W72°40'50"
Elevation is 199 feet MSL.
Magnetic variation is -15.53° East
View others Airports in Quebec

Operational data

Special qualification required
Current time UTC:
Current local time:
Weather
METAR: CYRQ 282100Z AUTO 22014KT 9SM FEW060 SCT076 BKN100 BKN170 20/15 A2951 RMK SLP996 DENSITY ALT 1400FT
TAF: TAF CYRQ 281940Z 2820/2908 21015G25KT P6SM -SHRA SCT020 OVC040 TEMPO 2820/2824 5SM -SHRA BR BKN020 OVC040 PROB30 2820/2823 VRB15G25KT 2SM TSRA BR OVC020CB FM290000 24008KT P6SM SCT020 OVC040 TEMPO 2900/2904 BKN020 OVC040 FM290400 29008KT P6SM BKN040 RMK FCST BASED ON AUTO OBS. NXT FCST BY 290200Z
View NOTAMs / SUP AIP / TFR affecting this airport [VIEW]
Communications frequencies: [VIEW]

Runways:

RWY identifierQFULength (ft)Width (ft)SurfaceLDA (ft)
0531°9006150ASPH9006
23211°9006150ASPH9006

Airport contact information

Address: Trois-Rivieres Canada

Other aviation service providers

Flight schools

Rsultra Inc.

Rsultra Inc.
info@rsultra.com+18195385000

Satellite view of CYRQ